createdAt,value
2023-04-15T00:02:15.650Z,12.73
2023-04-15T00:04:46.263Z,10.60
2023-04-15T00:07:14.945Z,16.40
2023-04-15T00:09:44.882Z,10.77
2023-04-15T00:12:12.854Z,12.00
2023-04-15T00:14:39.667Z,7.93
2023-04-15T00:17:06.523Z,10.55
2023-04-15T00:19:34.681Z,8.38
2023-04-15T00:22:01.526Z,18.08
2023-04-15T00:24:28.280Z,10.63
2023-04-15T00:26:55.086Z,13.85
2023-04-15T00:29:21.911Z,10.25
2023-04-15T00:31:48.624Z,18.30
2023-04-15T00:34:15.385Z,7.03
2023-04-15T00:36:42.280Z,7.38
2023-04-15T00:39:09.217Z,10.38
2023-04-15T00:41:39.264Z,11.93
2023-04-15T00:44:09.441Z,9.80
2023-04-15T00:46:40.327Z,9.40
2023-04-15T00:49:11.201Z,7.07
2023-04-15T00:51:38.003Z,14.15
2023-04-15T00:54:05.991Z,9.70
2023-04-15T00:56:36.965Z,11.60
2023-04-15T00:59:04.513Z,32.97
2023-04-15T01:01:31.700Z,13.80
2023-04-15T01:03:58.880Z,12.32
2023-04-15T01:06:27.415Z,11.40
2023-04-15T01:08:56.096Z,17.13
2023-04-15T01:11:24.181Z,10.45
2023-04-15T01:13:52.330Z,11.80
2023-04-15T01:16:19.997Z,13.95
2023-04-15T01:18:47.015Z,12.48
2023-04-15T01:21:13.817Z,16.75
2023-04-15T01:23:40.752Z,14.55
2023-04-15T01:26:09.269Z,9.82
2023-04-15T01:28:37.559Z,11.82
2023-04-15T01:31:12.850Z,10.57
2023-04-15T01:33:41.178Z,11.32
2023-04-15T01:36:09.752Z,8.85
2023-04-15T01:38:39.547Z,9.38
2023-04-15T01:41:08.196Z,11.00
2023-04-15T01:43:37.165Z,11.20
2023-04-15T01:46:03.997Z,10.75
2023-04-15T01:48:31.266Z,9.95
2023-04-15T01:50:58.607Z,9.40
2023-04-15T01:53:26.005Z,14.38
2023-04-15T01:55:52.856Z,14.27
2023-04-15T01:58:20.050Z,7.10
2023-04-15T02:00:47.285Z,9.73
2023-04-15T02:03:14.209Z,10.93
2023-04-15T02:05:41.078Z,10.07
2023-04-15T02:08:07.867Z,10.05
2023-04-15T02:10:35.519Z,11.20
2023-04-15T02:13:02.624Z,7.60
2023-04-15T02:15:29.601Z,12.05
2023-04-15T02:17:57.024Z,11.95
2023-04-15T02:20:23.980Z,13.57
2023-04-15T02:22:50.852Z,13.52
2023-04-15T02:25:17.811Z,10.98
2023-04-15T02:27:44.616Z,12.25
2023-04-15T02:30:11.636Z,9.93
2023-04-15T02:32:38.530Z,12.13
2023-04-15T02:35:06.789Z,11.32
2023-04-15T02:37:40.490Z,10.52
2023-04-15T02:40:10.226Z,13.27
2023-04-15T02:42:36.978Z,8.65
2023-04-15T02:45:04.040Z,14.52
2023-04-15T02:47:30.871Z,16.02
2023-04-15T02:49:58.716Z,11.95
2023-04-15T02:52:25.684Z,11.38
2023-04-15T02:54:53.920Z,11.85
2023-04-15T02:57:22.361Z,15.60
2023-04-15T02:59:49.119Z,11.85
2023-04-15T03:02:16.188Z,10.48
2023-04-15T03:04:46.149Z,12.18
2023-04-15T03:07:12.972Z,14.68
2023-04-15T03:09:43.460Z,11.63
2023-04-15T03:12:10.214Z,11.45
2023-04-15T03:14:37.032Z,12.38
2023-04-15T03:17:04.915Z,10.20
2023-04-15T03:19:32.077Z,12.10
2023-04-15T03:21:58.879Z,15.40
2023-04-15T03:24:26.312Z,16.35
2023-04-15T03:26:53.069Z,12.90
2023-04-15T03:29:19.864Z,16.83
2023-04-15T03:31:46.965Z,16.42
2023-04-15T03:34:13.691Z,15.63
2023-04-15T03:36:40.694Z,18.75
2023-04-15T03:39:07.475Z,15.50
2023-04-15T03:41:34.286Z,18.20
2023-04-15T03:44:01.177Z,14.35
2023-04-15T03:46:28.129Z,13.70
2023-04-15T03:48:54.978Z,13.20
2023-04-15T03:51:22.256Z,13.70
2023-04-15T03:53:49.331Z,16.33
2023-04-15T03:56:16.070Z,11.07
2023-04-15T03:58:42.878Z,20.23
2023-04-15T04:01:09.869Z,14.52
2023-04-15T04:03:37.336Z,12.88
2023-04-15T04:06:04.693Z,15.27
2023-04-15T04:08:31.438Z,15.70
2023-04-15T04:10:58.227Z,17.02
2023-04-15T04:13:24.990Z,14.60
2023-04-15T04:15:51.810Z,13.90
2023-04-15T04:18:18.687Z,18.15
2023-04-15T04:20:45.746Z,17.30
2023-04-15T04:23:12.618Z,16.52
2023-04-15T04:25:39.411Z,16.25
2023-04-15T04:28:06.171Z,15.73
2023-04-15T04:30:33.113Z,15.48
2023-04-15T04:33:00.047Z,14.27
2023-04-15T04:35:27.412Z,16.73
2023-04-15T04:37:54.185Z,17.30
2023-04-15T04:40:21.216Z,13.05
2023-04-15T04:42:48.154Z,13.90
2023-04-15T04:45:15.173Z,13.90
2023-04-15T04:47:41.990Z,17.88
2023-04-15T04:50:09.213Z,12.65
2023-04-15T04:52:36.083Z,17.05
2023-04-15T04:55:02.975Z,15.73
2023-04-15T04:57:29.772Z,12.55
2023-04-15T04:59:56.682Z,18.63
2023-04-15T05:02:23.779Z,13.57
2023-04-15T05:04:54.404Z,14.60
2023-04-15T05:07:21.381Z,12.30
2023-04-15T05:09:48.284Z,14.80
2023-04-15T05:12:16.225Z,14.52
2023-04-15T05:14:43.042Z,18.10
2023-04-15T05:17:09.828Z,15.85
2023-04-15T05:19:39.059Z,15.27
2023-04-15T05:22:06.299Z,16.90
2023-04-15T05:24:33.065Z,16.35
2023-04-15T05:27:01.294Z,15.77
2023-04-15T05:29:28.020Z,15.00
2023-04-15T05:31:54.920Z,14.20
2023-04-15T05:34:21.688Z,13.95
2023-04-15T05:36:48.834Z,14.18
2023-04-15T05:39:17.605Z,16.38
2023-04-15T05:41:44.831Z,14.55
2023-04-15T05:44:12.012Z,13.57
2023-04-15T05:46:39.347Z,14.98
2023-04-15T05:49:06.264Z,15.73
2023-04-15T05:51:33.049Z,15.80
2023-04-15T05:53:59.831Z,14.57
2023-04-15T05:56:27.136Z,16.88
2023-04-15T05:58:54.010Z,15.75
2023-04-15T06:01:20.906Z,20.80
2023-04-15T06:03:48.797Z,15.38
2023-04-15T06:06:16.035Z,15.68
2023-04-15T06:08:42.808Z,16.67
2023-04-15T06:11:09.607Z,16.13
2023-04-15T06:13:36.361Z,14.68
2023-04-15T06:16:04.155Z,14.18
2023-04-15T06:18:30.930Z,13.10
2023-04-15T06:20:57.778Z,15.13
2023-04-15T06:23:26.327Z,16.00
2023-04-15T06:25:53.799Z,17.17
2023-04-15T06:28:20.521Z,13.38
2023-04-15T06:30:47.469Z,13.55
2023-04-15T06:33:14.227Z,13.75
2023-04-15T06:35:41.097Z,15.25
2023-04-15T06:38:07.899Z,17.65
2023-04-15T06:40:35.567Z,14.60
2023-04-15T06:43:02.359Z,12.48
2023-04-15T06:45:29.130Z,14.73
2023-04-15T06:47:56.015Z,13.25
2023-04-15T06:50:22.877Z,12.73
2023-04-15T06:52:49.940Z,17.02
2023-04-15T06:55:16.757Z,11.18
2023-04-15T06:57:43.544Z,11.23
2023-04-15T07:00:12.064Z,10.43
2023-04-15T07:02:39.208Z,11.85
2023-04-15T07:05:07.127Z,12.18
2023-04-15T07:07:33.904Z,9.95
2023-04-15T07:10:02.103Z,15.55
2023-04-15T07:12:29.010Z,10.82
2023-04-15T07:14:55.936Z,12.57
2023-04-15T07:17:22.832Z,9.18
2023-04-15T07:19:49.672Z,10.43
2023-04-15T07:22:16.549Z,12.35
2023-04-15T07:24:43.326Z,12.27
2023-04-15T07:27:10.154Z,8.82
2023-04-15T07:29:36.969Z,10.75
2023-04-15T07:32:03.927Z,11.35
2023-04-15T07:34:31.521Z,10.05
2023-04-15T07:36:59.389Z,9.18
2023-04-15T07:39:26.436Z,11.48
2023-04-15T07:41:53.269Z,10.27
2023-04-15T07:44:20.058Z,10.95
2023-04-15T07:46:46.921Z,9.10
2023-04-15T07:49:14.456Z,6.50
2023-04-15T07:51:41.227Z,9.18
2023-04-15T07:59:31.221Z,6.95
2023-04-15T08:01:58.457Z,7.38
2023-04-15T08:04:25.790Z,8.85
2023-04-15T08:06:52.796Z,5.10
2023-04-15T08:09:20.029Z,6.25
2023-04-15T08:11:49.356Z,12.82
2023-04-15T08:14:16.750Z,6.55
2023-04-15T08:16:43.550Z,7.57
2023-04-15T08:19:10.525Z,5.45
2023-04-15T08:21:37.347Z,7.55
2023-04-15T08:24:04.279Z,5.90
2023-04-15T08:26:31.211Z,12.88
2023-04-15T08:28:58.105Z,6.03
2023-04-15T08:31:27.909Z,5.68
2023-04-15T08:33:56.863Z,7.43
2023-04-15T08:36:23.621Z,6.90
2023-04-15T08:38:50.581Z,5.72
2023-04-15T08:41:25.805Z,4.43
2023-04-15T08:44:13.569Z,6.60
2023-04-15T08:46:42.814Z,5.35
2023-04-15T08:49:14.830Z,7.75
2023-04-15T08:51:42.036Z,5.20
2023-04-15T08:54:09.759Z,6.18
2023-04-15T08:56:39.043Z,4.00
2023-04-15T08:59:07.170Z,3.55
2023-04-15T09:01:34.383Z,4.95
2023-04-15T09:04:03.400Z,5.18
2023-04-15T09:06:30.224Z,4.43
2023-04-15T09:08:58.085Z,4.88
2023-04-15T09:11:24.937Z,3.53
2023-04-15T09:13:52.356Z,4.05
2023-04-15T09:16:19.608Z,5.22
2023-04-15T09:18:46.632Z,2.83
2023-04-15T09:21:17.908Z,3.13
2023-04-15T09:24:01.647Z,3.15
2023-04-15T09:26:37.660Z,5.28
2023-04-15T09:29:09.888Z,4.18
2023-04-15T09:31:37.859Z,3.50
2023-04-15T09:34:04.966Z,5.82
2023-04-15T09:36:50.849Z,5.05
2023-04-15T09:39:18.066Z,5.00
2023-04-15T09:41:45.291Z,4.32
2023-04-15T09:44:25.733Z,6.72
2023-04-15T09:46:52.599Z,4.78
2023-04-15T09:49:20.961Z,4.68
2023-04-15T09:52:03.955Z,4.20
2023-04-15T09:54:38.955Z,5.55
2023-04-15T09:57:10.341Z,4.07
2023-04-15T09:59:44.706Z,3.88
2023-04-15T10:02:13.778Z,4.75
2023-04-15T10:04:41.646Z,2.58
2023-04-15T10:07:10.014Z,3.05
2023-04-15T10:09:38.335Z,2.60
2023-04-15T10:12:05.768Z,2.72
2023-04-15T10:14:35.755Z,2.70
2023-04-15T10:17:04.869Z,2.70
2023-04-15T10:19:37.417Z,6.10
2023-04-15T10:22:07.821Z,2.53
2023-04-15T10:24:35.418Z,3.08
2023-04-15T10:27:06.003Z,2.40
2023-04-15T10:29:37.747Z,2.35
2023-04-15T10:32:08.296Z,2.47
2023-04-15T10:34:35.791Z,4.70
2023-04-15T10:37:06.525Z,2.67
2023-04-15T10:39:34.191Z,5.20
2023-04-15T10:42:15.514Z,6.15
2023-04-15T10:44:50.869Z,5.28
2023-04-15T10:47:19.861Z,3.67
2023-04-15T10:49:59.230Z,4.32
2023-04-15T10:52:31.008Z,4.85
2023-04-15T10:55:12.820Z,4.70
2023-04-15T10:57:41.124Z,3.75
2023-04-15T11:00:19.315Z,3.30
2023-04-15T11:02:47.770Z,4.05
2023-04-15T11:05:19.128Z,4.57
2023-04-15T11:07:56.876Z,2.90
2023-04-15T11:10:32.665Z,5.32
2023-04-15T11:13:02.401Z,6.55
2023-04-15T11:15:42.532Z,5.68
2023-04-15T11:18:19.347Z,2.90
2023-04-15T11:20:59.350Z,2.47
2023-04-15T11:23:41.355Z,3.88
2023-04-15T11:26:10.248Z,2.50
2023-04-15T11:28:41.475Z,6.10
2023-04-15T11:31:13.985Z,2.63
2023-04-15T11:34:02.011Z,4.07
2023-04-15T11:36:32.211Z,3.75
2023-04-15T11:39:00.233Z,4.82
2023-04-15T11:41:27.141Z,2.42
2023-04-15T11:43:54.037Z,2.22
2023-04-15T11:46:22.728Z,2.63
2023-04-15T11:48:51.953Z,3.42
2023-04-15T11:51:21.009Z,2.10
2023-04-15T11:53:50.606Z,4.78
2023-04-15T11:56:23.342Z,3.13
2023-04-15T11:59:00.190Z,2.75
2023-04-15T12:01:39.525Z,5.85
2023-04-15T12:04:20.876Z,6.50
2023-04-15T12:06:50.141Z,4.72
2023-04-15T12:09:17.485Z,2.13
2023-04-15T12:11:47.562Z,4.63
2023-04-15T12:14:26.718Z,2.78
2023-04-15T12:16:58.622Z,2.05
2023-04-15T12:19:38.297Z,3.53
2023-04-15T12:22:16.470Z,3.97
2023-04-15T12:24:47.129Z,2.03
2023-04-15T12:27:21.514Z,5.95
2023-04-15T12:29:48.361Z,3.03
2023-04-15T12:32:17.498Z,1.92
2023-04-15T12:34:52.063Z,5.35
2023-04-15T12:37:19.001Z,2.45
2023-04-15T12:39:49.490Z,1.95
2023-04-15T12:42:17.870Z,2.50
2023-04-15T12:47:30.280Z,2.88
2023-04-15T12:50:05.762Z,4.75
2023-04-15T12:55:08.509Z,2.15
2023-04-15T12:57:35.389Z,3.28
2023-04-15T13:00:02.562Z,3.05
2023-04-15T13:02:29.594Z,3.00
2023-04-15T13:04:56.648Z,3.83
2023-04-15T13:07:23.962Z,2.88
2023-04-15T13:09:50.878Z,3.80
2023-04-15T13:12:17.676Z,2.30
2023-04-15T13:14:44.588Z,3.55
2023-04-15T13:17:11.606Z,2.05
2023-04-15T13:19:39.220Z,4.85
2023-04-15T13:22:07.252Z,4.80
2023-04-15T13:24:34.100Z,4.10
2023-04-15T13:27:01.016Z,2.08
2023-04-15T13:29:27.973Z,3.03
2023-04-15T13:31:54.891Z,2.85
2023-04-15T13:34:21.769Z,3.03
2023-04-15T13:36:48.909Z,4.22
2023-04-15T13:39:17.165Z,2.92
2023-04-15T13:41:44.007Z,3.55
2023-04-15T13:44:12.328Z,4.10
2023-04-15T13:49:24.553Z,4.00
2023-04-15T13:51:51.731Z,1.30
2023-04-15T13:54:18.544Z,3.72
2023-04-15T13:56:45.455Z,4.28
2023-04-15T14:07:30.892Z,3.88
2023-04-15T14:12:39.402Z,2.75
2023-04-15T14:15:06.841Z,3.33
2023-04-15T14:20:19.790Z,4.20
2023-04-15T14:22:46.713Z,6.97
2023-04-15T14:25:23.065Z,4.50
2023-04-15T14:27:57.532Z,4.85
2023-04-15T14:35:45.148Z,5.82
2023-04-15T14:38:11.987Z,4.13
2023-04-15T14:40:39.206Z,3.65
2023-04-15T14:43:08.566Z,3.88
2023-04-15T14:45:36.388Z,2.70
2023-04-15T14:48:03.571Z,2.92
2023-04-15T14:50:30.610Z,4.35
2023-04-15T14:52:57.507Z,7.30
2023-04-15T14:55:24.554Z,5.90
2023-04-15T14:57:51.574Z,9.48
2023-04-15T15:00:18.707Z,6.07
2023-04-15T15:02:47.579Z,8.27
2023-04-15T15:05:15.210Z,4.93
2023-04-15T15:07:42.285Z,4.45
2023-04-15T15:10:09.268Z,8.15
2023-04-15T15:12:36.408Z,12.48
2023-04-15T15:15:12.393Z,5.55
2023-04-15T15:17:43.020Z,10.20
2023-04-15T15:20:10.584Z,9.65
2023-04-15T15:22:37.355Z,6.60
2023-04-15T15:25:04.799Z,5.88
2023-04-15T15:27:32.057Z,3.72
2023-04-15T15:29:59.320Z,4.15
2023-04-15T15:32:26.268Z,3.85
2023-04-15T15:34:53.375Z,5.38
2023-04-15T15:37:20.305Z,7.65
2023-04-15T15:39:47.123Z,4.65
2023-04-15T15:42:14.116Z,8.00
2023-04-15T15:44:40.999Z,6.03
2023-04-15T15:47:08.034Z,10.25
2023-04-15T15:49:34.951Z,6.47
2023-04-15T15:52:01.796Z,9.85
2023-04-15T15:54:29.266Z,8.70
2023-04-15T15:56:57.686Z,7.03
2023-04-15T15:59:27.580Z,9.73
2023-04-15T16:01:54.387Z,7.30
2023-04-15T16:04:21.751Z,11.82
2023-04-15T16:06:49.595Z,8.30
2023-04-15T16:09:17.888Z,13.65
2023-04-15T16:11:45.817Z,9.88
2023-04-15T16:14:14.040Z,5.40
2023-04-15T16:16:41.133Z,6.43
2023-04-15T16:19:07.940Z,11.27
2023-04-15T16:21:35.625Z,10.10
2023-04-15T16:24:03.058Z,6.60
2023-04-15T16:26:30.356Z,5.75
2023-04-15T16:28:57.283Z,8.98
2023-04-15T16:31:24.337Z,8.85
2023-04-15T16:33:51.337Z,6.30
2023-04-15T16:36:18.138Z,8.35
2023-04-15T16:38:48.472Z,4.95
2023-04-15T16:41:15.923Z,8.55
2023-04-15T16:43:42.749Z,8.55
2023-04-15T16:46:09.579Z,8.35
2023-04-15T16:48:36.404Z,10.95
2023-04-15T16:51:03.266Z,13.55
2023-04-15T16:53:30.047Z,7.30
2023-04-15T16:55:57.048Z,8.07
2023-04-15T16:58:31.843Z,8.68
2023-04-15T17:00:59.319Z,4.63
2023-04-15T17:03:27.499Z,13.18
2023-04-15T17:05:54.381Z,6.13
2023-04-15T17:08:21.165Z,9.75
2023-04-15T17:10:48.008Z,9.52
2023-04-15T17:13:14.899Z,5.05
2023-04-15T17:15:41.777Z,8.43
2023-04-15T17:18:09.445Z,13.57
2023-04-15T17:20:36.302Z,6.88
2023-04-15T17:23:04.052Z,8.27
2023-04-15T17:25:31.056Z,9.25
2023-04-15T17:27:58.050Z,6.07
2023-04-15T17:30:27.871Z,13.30
2023-04-15T17:32:55.105Z,16.30
2023-04-15T17:35:23.827Z,9.35
2023-04-15T17:37:51.230Z,12.70
2023-04-15T17:40:19.277Z,12.48
2023-04-15T17:42:46.318Z,8.52
2023-04-15T17:45:15.173Z,18.42
2023-04-15T17:47:43.057Z,17.27
2023-04-15T17:50:10.320Z,12.25
2023-04-15T17:52:37.100Z,10.93
2023-04-15T17:55:12.167Z,9.25
2023-04-15T17:57:42.311Z,14.63
2023-04-15T18:00:10.730Z,6.28
2023-04-15T18:02:38.249Z,7.10
2023-04-15T18:05:07.375Z,13.68
2023-04-15T18:07:38.171Z,12.40
2023-04-15T18:10:05.715Z,11.43
2023-04-15T18:12:33.819Z,8.95
2023-04-15T18:15:00.828Z,14.35
2023-04-15T18:17:28.490Z,9.38
2023-04-15T18:19:56.052Z,13.32
2023-04-15T18:22:22.863Z,5.00
2023-04-15T18:24:50.989Z,7.55
2023-04-15T18:27:18.332Z,6.38
2023-04-15T18:29:49.506Z,11.07
2023-04-15T18:32:16.754Z,7.60
2023-04-15T18:34:43.506Z,7.13
2023-04-15T18:37:10.457Z,7.45
2023-04-15T18:39:37.244Z,12.80
2023-04-15T18:42:06.526Z,8.27
2023-04-15T18:44:36.107Z,11.18
2023-04-15T18:47:05.839Z,11.73
2023-04-15T18:49:33.324Z,7.65
2023-04-15T18:52:02.959Z,8.23
2023-04-15T18:54:31.518Z,12.63
2023-04-15T18:56:58.650Z,11.43
2023-04-15T18:59:29.702Z,6.63
2023-04-15T19:01:58.158Z,8.23
2023-04-15T19:04:25.750Z,9.82
2023-04-15T19:06:52.704Z,12.30
2023-04-15T19:09:23.956Z,13.15
2023-04-15T19:11:50.885Z,9.93
2023-04-15T19:14:19.655Z,7.85
2023-04-15T19:16:47.961Z,9.02
2023-04-15T19:19:15.154Z,6.32
2023-04-15T19:21:42.073Z,12.07
2023-04-15T19:24:10.194Z,7.55
2023-04-15T19:26:37.233Z,9.07
2023-04-15T19:29:04.240Z,6.68
2023-04-15T19:31:31.694Z,8.60
2023-04-15T19:33:58.479Z,10.63
2023-04-15T19:36:25.429Z,8.55
2023-04-15T19:38:54.398Z,27.35
2023-04-15T19:41:26.582Z,12.48
2023-04-15T19:43:53.441Z,11.60
2023-04-15T19:46:20.519Z,6.45
2023-04-15T19:48:47.521Z,10.18
2023-04-15T19:51:16.349Z,13.07
2023-04-15T19:53:43.165Z,9.63
2023-04-15T19:56:10.066Z,10.25
2023-04-15T19:58:37.426Z,39.08
2023-04-15T20:01:04.284Z,14.60
2023-04-15T20:03:31.382Z,16.83
2023-04-15T20:05:58.369Z,26.77
2023-04-15T20:08:25.195Z,10.07
2023-04-15T20:10:51.963Z,15.65
2023-04-15T20:13:18.868Z,7.15
2023-04-15T20:15:45.905Z,7.82
2023-04-15T20:18:12.711Z,8.45
2023-04-15T20:20:40.358Z,12.20
2023-04-15T20:23:07.174Z,11.30
2023-04-15T20:25:33.983Z,16.17
2023-04-15T20:28:01.194Z,12.48
2023-04-15T20:30:29.710Z,12.40
2023-04-15T20:32:56.851Z,9.88
2023-04-15T20:35:25.146Z,11.82
2023-04-15T20:37:52.131Z,13.30
2023-04-15T20:40:19.083Z,11.27
2023-04-15T20:42:48.551Z,9.02
2023-04-15T20:45:15.493Z,11.50
2023-04-15T20:47:42.557Z,11.93
2023-04-15T20:50:10.235Z,7.70
2023-04-15T20:52:37.014Z,14.25
2023-04-15T20:55:04.054Z,12.43
2023-04-15T20:57:30.851Z,14.45
2023-04-15T20:59:57.762Z,10.60
2023-04-15T21:02:25.193Z,9.70
2023-04-15T21:04:52.162Z,14.38
2023-04-15T21:07:18.976Z,11.00
2023-04-15T21:09:46.934Z,8.57
2023-04-15T21:12:13.832Z,11.63
2023-04-15T21:14:40.713Z,8.65
2023-04-15T21:17:10.891Z,10.40
2023-04-15T21:19:38.759Z,8.80
2023-04-15T21:22:05.732Z,5.85
2023-04-15T21:24:32.675Z,6.97
2023-04-15T21:26:59.637Z,11.95
2023-04-15T21:29:26.424Z,9.40
2023-04-15T21:31:53.765Z,10.77
2023-04-15T21:34:20.619Z,6.95
2023-04-15T21:36:47.498Z,5.40
2023-04-15T21:39:14.347Z,16.95
2023-04-15T21:41:41.240Z,6.97
2023-04-15T21:44:08.173Z,10.85
2023-04-15T21:46:36.105Z,13.20
2023-04-15T21:49:03.562Z,10.35
2023-04-15T21:51:31.434Z,11.68
2023-04-15T21:53:58.761Z,10.25
2023-04-15T21:56:26.064Z,9.82
2023-04-15T21:58:59.398Z,24.70
2023-04-15T22:01:26.958Z,9.35
2023-04-15T22:03:55.293Z,18.73
2023-04-15T22:06:22.374Z,12.45
2023-04-15T22:09:11.409Z,5.50
2023-04-15T22:11:37.006Z,8.93
2023-04-15T22:14:03.919Z,10.38
2023-04-15T22:16:30.733Z,15.70
2023-04-15T22:18:57.600Z,10.02
2023-04-15T22:21:24.471Z,7.30
2023-04-15T22:23:51.966Z,9.25
2023-04-15T22:26:18.938Z,10.40
2023-04-15T22:28:45.770Z,7.82
2023-04-15T22:31:13.735Z,11.00
2023-04-15T22:33:40.653Z,12.63
2023-04-15T22:36:07.733Z,10.73
2023-04-15T22:38:34.476Z,15.73
2023-04-15T22:41:01.296Z,9.95
2023-04-15T22:43:28.274Z,14.13
2023-04-15T22:45:55.507Z,9.70
2023-04-15T22:48:23.068Z,14.57
2023-04-15T22:50:50.127Z,17.98
2023-04-15T22:53:17.963Z,9.18
2023-04-15T22:55:47.079Z,16.92
2023-04-15T22:58:15.051Z,12.55
2023-04-15T23:00:42.245Z,15.90
2023-04-15T23:03:09.414Z,14.88
2023-04-15T23:05:36.713Z,9.95
2023-04-15T23:08:03.766Z,19.92
2023-04-15T23:10:30.975Z,16.05
2023-04-15T23:12:57.954Z,12.45
2023-04-15T23:15:25.465Z,14.52
2023-04-15T23:17:52.395Z,12.75
2023-04-15T23:20:19.181Z,14.65
2023-04-15T23:22:46.283Z,14.02
2023-04-15T23:25:13.057Z,18.20
2023-04-15T23:27:39.926Z,12.50
2023-04-15T23:30:07.739Z,16.83
2023-04-15T23:32:35.168Z,17.35
2023-04-15T23:35:02.032Z,21.48
2023-04-15T23:37:30.329Z,13.95
2023-04-15T23:39:57.230Z,16.25
2023-04-15T23:42:24.214Z,9.65
2023-04-15T23:44:51.868Z,12.45
2023-04-15T23:47:18.683Z,6.90
2023-04-15T23:49:45.494Z,18.67
2023-04-15T23:52:12.498Z,18.67
2023-04-15T23:54:40.163Z,14.93
2023-04-15T23:57:07.140Z,14.23
2023-04-15T23:59:33.934Z,13.15
